createdAt,value
2022-08-20T00:01:30.030Z,12.40
2022-08-20T00:04:03.104Z,12.75
2022-08-20T00:06:31.439Z,11.70
2022-08-20T00:08:58.632Z,11.63
2022-08-20T00:11:29.727Z,12.18
2022-08-20T00:14:01.403Z,11.48
2022-08-20T00:16:34.642Z,11.10
2022-08-20T00:19:07.170Z,11.52
2022-08-20T00:21:47.250Z,11.65
2022-08-20T00:24:16.545Z,11.45
2022-08-20T00:26:52.597Z,11.75
2022-08-20T00:29:22.454Z,11.93
2022-08-20T00:31:51.684Z,12.02
2022-08-20T00:34:18.885Z,11.13
2022-08-20T00:36:56.065Z,10.93
2022-08-20T00:39:25.144Z,11.48
2022-08-20T00:41:52.700Z,11.57
2022-08-20T00:44:33.199Z,12.40
2022-08-20T00:47:05.497Z,11.82
2022-08-20T00:49:34.766Z,12.88
2022-08-20T00:52:23.091Z,13.07
2022-08-20T00:54:58.451Z,13.07
2022-08-20T00:57:46.110Z,13.02
2022-08-20T01:00:38.735Z,14.30
2022-08-20T01:03:22.124Z,13.60
2022-08-20T01:05:55.254Z,14.15
2022-08-20T01:08:28.616Z,13.77
2022-08-20T01:11:16.937Z,14.10
2022-08-20T01:13:46.393Z,14.25
2022-08-20T01:16:25.281Z,13.93
2022-08-20T01:19:02.902Z,13.35
2022-08-20T01:21:34.088Z,13.48
2022-08-20T01:24:14.313Z,13.95
2022-08-20T01:26:49.548Z,13.52
2022-08-20T01:29:25.771Z,13.18
2022-08-20T01:32:01.785Z,13.60
2022-08-20T01:34:31.070Z,13.13
2022-08-20T01:37:02.618Z,13.90
2022-08-20T01:39:35.549Z,13.80
2022-08-20T01:42:08.502Z,14.20
2022-08-20T01:48:17.414Z,13.02
2022-08-20T01:51:05.112Z,14.32
2022-08-20T01:53:47.753Z,14.55
2022-08-20T01:56:22.645Z,14.98
2022-08-20T01:58:59.135Z,15.18
2022-08-20T02:01:53.722Z,14.23
2022-08-20T02:04:28.161Z,14.75
2022-08-20T02:07:13.222Z,15.40
2022-08-20T02:09:58.672Z,15.85
2022-08-20T02:12:26.131Z,15.50
2022-08-20T02:14:58.378Z,15.93
2022-08-20T02:17:39.836Z,13.98
2022-08-20T02:20:16.987Z,14.77
2022-08-20T02:23:30.245Z,15.05
2022-08-20T02:26:03.288Z,14.90
2022-08-20T02:28:33.574Z,15.40
2022-08-20T02:31:01.902Z,16.45
2022-08-20T02:33:29.076Z,15.80
2022-08-20T02:36:04.441Z,16.60
2022-08-20T02:38:31.415Z,16.52
2022-08-20T02:41:02.531Z,16.20
2022-08-20T02:43:32.494Z,15.90
2022-08-20T02:46:09.215Z,16.60
2022-08-20T02:48:36.384Z,16.17
2022-08-20T02:51:07.347Z,17.45
2022-08-20T02:53:39.149Z,17.77
2022-08-20T02:56:06.643Z,18.42
2022-08-20T02:58:36.211Z,18.92
2022-08-20T03:01:08.257Z,18.15
2022-08-20T03:03:44.826Z,18.02
2022-08-20T03:06:14.846Z,17.92
2022-08-20T03:08:59.498Z,18.17
2022-08-20T03:11:27.745Z,20.42
2022-08-20T03:14:02.601Z,18.52
2022-08-20T03:16:29.646Z,19.55
2022-08-20T03:18:57.602Z,20.35
2022-08-20T03:21:24.751Z,21.95
2022-08-20T03:23:58.587Z,22.00
2022-08-20T03:28:55.489Z,21.63
2022-08-20T03:31:37.213Z,24.10
2022-08-20T03:34:06.432Z,23.92
2022-08-20T03:36:34.657Z,24.92
2022-08-20T03:39:06.935Z,26.33
2022-08-20T03:41:35.181Z,26.42
2022-08-20T03:44:04.873Z,26.48
2022-08-20T03:46:34.453Z,26.25
2022-08-20T03:49:02.578Z,25.55
2022-08-20T03:51:31.729Z,25.20
2022-08-20T03:54:46.609Z,24.23
2022-08-20T03:57:24.083Z,25.88
2022-08-20T03:59:58.299Z,25.00
2022-08-20T04:02:26.436Z,23.02
2022-08-20T04:04:53.712Z,22.15
2022-08-20T04:07:26.206Z,23.95
2022-08-20T04:09:55.181Z,23.92
2022-08-20T04:12:23.898Z,23.15
2022-08-20T04:14:52.832Z,23.38
2022-08-20T04:17:20.908Z,23.70
2022-08-20T04:19:49.651Z,23.33
2022-08-20T04:22:16.821Z,23.88
2022-08-20T04:24:44.857Z,23.08
2022-08-20T04:27:15.157Z,23.88
2022-08-20T04:29:48.333Z,24.33
2022-08-20T04:32:21.648Z,22.98
2022-08-20T04:34:52.384Z,23.73
2022-08-20T04:37:22.934Z,24.20
2022-08-20T04:40:15.435Z,22.90
2022-08-20T04:42:43.544Z,23.65
2022-08-20T04:45:22.372Z,24.05
2022-08-20T04:47:50.306Z,22.83
2022-08-20T04:50:19.847Z,23.58
2022-08-20T04:52:49.961Z,22.83
2022-08-20T04:55:20.085Z,23.35
2022-08-20T04:57:47.205Z,23.30
2022-08-20T05:00:17.658Z,23.58
2022-08-20T05:02:45.256Z,22.40
2022-08-20T05:05:13.219Z,23.30
2022-08-20T05:07:43.484Z,22.90
2022-08-20T05:10:12.993Z,21.83
2022-08-20T05:12:42.249Z,21.65
2022-08-20T05:15:31.976Z,20.00
2022-08-20T05:18:06.137Z,20.90
2022-08-20T05:20:51.572Z,21.90
2022-08-20T05:23:25.779Z,21.75
2022-08-20T05:25:53.175Z,22.40
2022-08-20T05:28:23.406Z,23.10
2022-08-20T05:30:53.166Z,22.00
2022-08-20T05:33:22.889Z,20.27
2022-08-20T05:35:54.352Z,21.65
2022-08-20T05:38:36.930Z,22.48
2022-08-20T05:41:29.729Z,22.83
2022-08-20T05:44:13.833Z,26.33
2022-08-20T05:46:44.268Z,30.38
2022-08-20T05:49:16.573Z,31.77
2022-08-20T05:51:51.563Z,34.10
2022-08-20T05:54:21.415Z,39.08
2022-08-20T05:57:05.253Z,42.67
2022-08-20T05:59:34.690Z,43.67
2022-08-20T06:03:01.124Z,44.58
2022-08-20T06:05:29.751Z,47.55
2022-08-20T06:07:57.942Z,48.95
2022-08-20T06:10:38.667Z,47.90
2022-08-20T06:13:10.023Z,49.85
2022-08-20T06:15:41.456Z,50.15
2022-08-20T06:18:28.231Z,49.33
2022-08-20T06:20:57.968Z,50.20
2022-08-20T06:23:26.234Z,49.03
2022-08-20T06:25:53.312Z,52.13
2022-08-20T06:28:20.963Z,51.40
2022-08-20T06:30:54.897Z,52.40
2022-08-20T06:33:24.097Z,54.53
2022-08-20T06:35:52.180Z,53.33
2022-08-20T06:38:27.520Z,55.75
2022-08-20T06:41:00.920Z,54.53
2022-08-20T06:43:43.341Z,53.67
2022-08-20T06:46:17.660Z,53.70
2022-08-20T06:48:45.819Z,52.85
2022-08-20T06:51:14.179Z,53.65
2022-08-20T06:53:44.420Z,55.42
2022-08-20T06:56:14.625Z,54.83
2022-08-20T06:58:57.902Z,56.15
2022-08-20T07:01:28.244Z,52.88
2022-08-20T07:03:59.801Z,52.47
2022-08-20T07:06:27.412Z,52.83
2022-08-20T07:08:56.256Z,52.42
2022-08-20T07:11:29.355Z,51.17
2022-08-20T07:14:23.261Z,50.58
2022-08-20T07:17:30.595Z,51.88
2022-08-20T07:20:09.040Z,49.40
2022-08-20T07:22:44.569Z,51.78
2022-08-20T07:25:15.846Z,53.10
2022-08-20T07:27:44.121Z,53.15
2022-08-20T07:30:56.549Z,51.38
2022-08-20T07:33:28.869Z,52.75
2022-08-20T07:36:00.950Z,49.33
2022-08-20T07:38:30.678Z,48.83
2022-08-20T07:41:13.820Z,50.50
2022-08-20T07:43:45.611Z,50.23
2022-08-20T07:46:16.637Z,48.72
2022-08-20T07:48:47.361Z,47.95
2022-08-20T07:51:18.094Z,47.50
2022-08-20T07:53:47.665Z,48.65
2022-08-20T07:56:19.546Z,48.35
2022-08-20T07:58:53.526Z,45.90
2022-08-20T08:01:26.378Z,46.45
2022-08-20T08:03:58.064Z,47.60
2022-08-20T08:06:29.793Z,48.97
2022-08-20T08:09:04.677Z,46.08
2022-08-20T08:11:38.708Z,47.40
2022-08-20T08:14:10.579Z,46.17
2022-08-20T08:16:39.775Z,44.97
2022-08-20T08:19:12.172Z,46.50
2022-08-20T08:21:52.714Z,47.25
2022-08-20T08:24:21.848Z,47.05
2022-08-20T08:26:52.836Z,46.33
2022-08-20T08:29:20.905Z,50.15
2022-08-20T08:31:47.945Z,46.90
2022-08-20T08:34:16.192Z,47.33
2022-08-20T08:36:56.853Z,46.50
2022-08-20T08:39:33.441Z,48.33
2022-08-20T08:42:05.399Z,46.13
2022-08-20T08:44:41.913Z,47.30
2022-08-20T08:47:25.398Z,43.50
2022-08-20T08:50:02.990Z,43.90
2022-08-20T08:52:42.710Z,41.53
2022-08-20T08:55:16.834Z,42.00
2022-08-20T08:57:43.963Z,41.92
2022-08-20T09:00:17.872Z,39.00
2022-08-20T09:03:17.657Z,40.03
2022-08-20T09:05:57.519Z,39.33
2022-08-20T09:08:51.785Z,40.17
2022-08-20T09:13:48.654Z,36.45
2022-08-20T09:16:25.326Z,37.22
2022-08-20T09:19:07.339Z,38.88
2022-08-20T09:21:35.465Z,38.53
2022-08-20T09:24:02.901Z,36.92
2022-08-20T09:26:30.227Z,35.53
2022-08-20T09:28:57.277Z,35.65
2022-08-20T09:31:25.396Z,35.17
2022-08-20T09:33:54.438Z,34.17
2022-08-20T09:36:31.415Z,33.00
2022-08-20T09:39:05.460Z,33.97
2022-08-20T09:41:40.666Z,33.65
2022-08-20T09:44:11.778Z,35.28
2022-08-20T09:46:45.692Z,33.10
2022-08-20T09:49:12.710Z,31.92
2022-08-20T09:51:41.849Z,33.25
2022-08-20T09:54:12.287Z,34.40
2022-08-20T09:56:41.487Z,31.92
2022-08-20T09:59:08.771Z,32.42
2022-08-20T10:01:37.862Z,33.55
2022-08-20T10:04:05.045Z,35.42
2022-08-20T10:06:37.205Z,33.47
2022-08-20T10:09:05.018Z,35.15
2022-08-20T10:11:32.105Z,33.58
2022-08-20T10:13:59.324Z,33.65
2022-08-20T10:16:27.377Z,32.85
2022-08-20T10:19:01.856Z,33.25
2022-08-20T10:21:33.392Z,36.70
2022-08-20T10:24:03.989Z,37.10
2022-08-20T10:26:31.181Z,34.60
2022-08-20T10:29:01.458Z,35.40
2022-08-20T10:31:29.673Z,34.25
2022-08-20T10:33:59.181Z,36.08
2022-08-20T10:36:27.281Z,34.58
2022-08-20T10:38:54.517Z,34.47
2022-08-20T10:41:25.549Z,36.60
2022-08-20T10:43:52.708Z,36.38
2022-08-20T10:46:36.417Z,35.83
2022-08-20T10:49:03.845Z,35.28
2022-08-20T10:51:32.577Z,35.05
2022-08-20T10:54:03.268Z,37.15
2022-08-20T10:56:39.404Z,36.25
2022-08-20T10:59:06.617Z,36.33
2022-08-20T11:01:36.727Z,33.63
2022-08-20T11:04:05.405Z,36.30
2022-08-20T11:06:32.405Z,33.95
2022-08-20T11:08:59.505Z,34.40
2022-08-20T11:11:26.655Z,35.33
2022-08-20T11:13:55.810Z,33.35
2022-08-20T11:16:23.558Z,30.85
2022-08-20T11:18:52.613Z,32.60
2022-08-20T11:21:22.801Z,31.05
2022-08-20T11:24:02.221Z,30.38
2022-08-20T11:26:35.861Z,31.98
2022-08-20T11:29:03.976Z,30.50
2022-08-20T11:31:33.296Z,30.63
2022-08-20T11:34:00.946Z,28.23
2022-08-20T11:36:28.088Z,30.42
2022-08-20T11:38:57.564Z,30.08
2022-08-20T11:41:25.684Z,30.88
2022-08-20T11:44:24.464Z,29.77
2022-08-20T11:47:03.669Z,28.92
2022-08-20T11:49:37.772Z,30.13
2022-08-20T11:52:06.991Z,30.58
2022-08-20T11:54:34.331Z,31.38
2022-08-20T11:57:10.770Z,31.98
2022-08-20T11:59:38.944Z,31.42
2022-08-20T12:02:11.640Z,29.75
2022-08-20T12:04:41.596Z,30.30
2022-08-20T12:07:14.734Z,32.00
2022-08-20T12:09:50.982Z,29.50
2022-08-20T12:12:23.209Z,31.05
2022-08-20T12:14:52.309Z,30.25
2022-08-20T12:17:27.057Z,30.25
2022-08-20T12:19:58.305Z,31.25
2022-08-20T12:22:26.226Z,28.35
2022-08-20T12:24:54.557Z,29.75
2022-08-20T12:27:33.091Z,29.73
2022-08-20T12:30:05.471Z,27.90
2022-08-20T12:32:33.242Z,29.35
2022-08-20T12:35:03.688Z,30.25
2022-08-20T12:37:32.642Z,27.80
2022-08-20T12:40:03.680Z,27.40
2022-08-20T12:42:32.982Z,25.70
2022-08-20T12:45:01.832Z,27.52
2022-08-20T12:47:34.467Z,28.98
2022-08-20T12:50:05.976Z,25.77
2022-08-20T12:52:35.099Z,24.73
2022-08-20T12:55:04.262Z,24.48
2022-08-20T12:57:39.621Z,24.63
2022-08-20T13:00:16.400Z,24.23
2022-08-20T13:02:43.771Z,25.58
2022-08-20T13:05:19.240Z,23.02
2022-08-20T13:07:47.858Z,23.40
2022-08-20T13:10:32.842Z,23.80
2022-08-20T13:13:03.259Z,24.25
2022-08-20T13:15:33.399Z,24.27
2022-08-20T13:18:03.182Z,24.38
2022-08-20T13:20:33.952Z,23.40
2022-08-20T13:23:05.281Z,22.70
2022-08-20T13:25:35.655Z,22.42
2022-08-20T13:28:10.774Z,22.65
2022-08-20T13:30:41.152Z,21.42
2022-08-20T13:33:08.433Z,20.23
2022-08-20T13:35:35.720Z,20.00
2022-08-20T13:38:06.493Z,20.50
2022-08-20T13:40:33.714Z,19.92
2022-08-20T13:43:04.728Z,20.67
2022-08-20T13:45:34.156Z,21.15
2022-08-20T13:48:01.178Z,20.15
2022-08-20T13:50:28.451Z,20.42
2022-08-20T13:52:56.483Z,20.27
2022-08-20T13:55:28.150Z,22.15
2022-08-20T13:57:57.466Z,21.98
2022-08-20T14:00:35.338Z,21.25
2022-08-20T14:03:28.005Z,20.52
2022-08-20T14:05:55.173Z,20.05
2022-08-20T14:08:24.832Z,21.98
2022-08-20T14:10:58.553Z,22.48
2022-08-20T14:13:56.643Z,21.05
2022-08-20T14:16:28.044Z,20.48
2022-08-20T14:19:01.258Z,20.80
2022-08-20T14:21:29.387Z,20.40
2022-08-20T14:23:58.529Z,21.75
2022-08-20T14:26:31.320Z,20.90
2022-08-20T14:28:59.401Z,20.98
2022-08-20T14:31:26.618Z,20.75
2022-08-20T14:33:53.679Z,20.40
2022-08-20T14:36:21.685Z,19.00
2022-08-20T14:38:55.458Z,19.73
2022-08-20T14:41:22.542Z,20.30
2022-08-20T14:43:51.601Z,20.23
2022-08-20T14:46:25.490Z,21.40
2022-08-20T14:48:54.912Z,21.23
2022-08-20T14:51:24.569Z,21.90
2022-08-20T14:53:51.591Z,21.75
2022-08-20T14:56:18.861Z,22.88
2022-08-20T14:58:47.880Z,25.17
2022-08-20T15:01:15.100Z,25.02
2022-08-20T15:03:45.244Z,25.88
2022-08-20T15:06:21.828Z,26.25
2022-08-20T15:08:51.192Z,27.60
2022-08-20T15:11:18.686Z,28.55
2022-08-20T15:13:48.121Z,26.73
2022-08-20T15:16:19.222Z,29.52
2022-08-20T15:18:47.286Z,30.05
2022-08-20T15:21:15.780Z,29.77
2022-08-20T15:23:52.622Z,30.15
2022-08-20T15:26:19.983Z,28.52
2022-08-20T15:28:51.047Z,30.25
2022-08-20T15:31:25.455Z,29.50
2022-08-20T15:33:53.646Z,31.70
2022-08-20T15:36:20.853Z,32.33
2022-08-20T15:38:50.989Z,33.90
2022-08-20T15:41:25.030Z,34.30
2022-08-20T15:44:06.611Z,34.38
2022-08-20T15:46:36.333Z,33.85
2022-08-20T15:49:12.770Z,34.50
2022-08-20T15:51:53.037Z,31.67
2022-08-20T15:54:27.925Z,34.10
2022-08-20T15:57:32.135Z,32.83
2022-08-20T16:01:23.817Z,32.22
2022-08-20T16:04:06.030Z,30.77
2022-08-20T16:06:33.790Z,31.45
2022-08-20T16:09:12.347Z,24.75
2022-08-20T16:11:58.772Z,27.40
2022-08-20T16:14:36.688Z,26.75
2022-08-20T16:17:13.230Z,22.00
2022-08-20T16:19:59.318Z,19.50
2022-08-20T16:22:30.887Z,20.05
2022-08-20T16:25:00.635Z,19.45
2022-08-20T16:27:54.660Z,21.38
2022-08-20T16:30:40.745Z,21.15
2022-08-20T16:33:19.664Z,21.20
2022-08-20T16:36:24.016Z,23.15
2022-08-20T16:39:06.075Z,19.27
2022-08-20T16:41:40.405Z,19.48
2022-08-20T16:44:24.789Z,17.20
2022-08-20T16:47:23.703Z,16.33
2022-08-20T16:50:06.392Z,17.10
2022-08-20T16:52:33.621Z,15.68
2022-08-20T16:55:01.707Z,15.93
2022-08-20T16:57:29.611Z,14.63
2022-08-20T16:59:59.921Z,16.45
2022-08-20T17:02:48.994Z,17.17
2022-08-20T17:05:49.051Z,16.40
2022-08-20T17:08:41.838Z,15.82
2022-08-20T17:11:17.386Z,15.95
2022-08-20T17:13:48.938Z,14.80
2022-08-20T17:16:15.949Z,15.60
2022-08-20T17:18:52.586Z,15.65
2022-08-20T17:21:28.666Z,15.80
2022-08-20T17:23:59.622Z,15.48
2022-08-20T17:26:32.613Z,15.63
2022-08-20T17:29:13.187Z,14.85
2022-08-20T17:31:44.064Z,14.90
2022-08-20T17:34:17.715Z,16.88
2022-08-20T17:37:11.080Z,16.70
2022-08-20T17:39:48.389Z,16.80
2022-08-20T17:42:19.422Z,16.42
2022-08-20T17:45:14.582Z,15.95
2022-08-20T17:47:44.193Z,15.95
2022-08-20T17:50:31.801Z,16.20
2022-08-20T17:53:11.091Z,21.63
2022-08-20T17:55:53.854Z,22.42
2022-08-20T17:58:32.905Z,21.98
2022-08-20T18:01:00.713Z,21.90
2022-08-20T18:03:28.061Z,25.13
2022-08-20T18:06:03.369Z,19.13
2022-08-20T18:08:44.056Z,19.17
2022-08-20T18:11:18.912Z,16.95
2022-08-20T18:14:00.745Z,18.48
2022-08-20T18:16:44.664Z,22.30
2022-08-20T18:19:26.268Z,20.73
2022-08-20T18:22:29.254Z,34.40
2022-08-20T18:25:07.947Z,22.25
2022-08-20T18:27:44.656Z,25.67
2022-08-20T18:30:18.848Z,32.70
2022-08-20T18:32:51.145Z,22.23
2022-08-20T18:35:38.078Z,23.52
2022-08-20T18:38:31.137Z,20.67
2022-08-20T18:41:42.990Z,21.17
2022-08-20T18:44:44.119Z,22.55
2022-08-20T18:48:05.225Z,17.98
2022-08-20T18:50:48.326Z,17.60
2022-08-20T18:53:51.903Z,16.80
2022-08-20T18:56:34.141Z,15.73
2022-08-20T18:59:20.300Z,14.35
2022-08-20T19:01:49.946Z,14.43
2022-08-20T19:04:33.003Z,14.02
2022-08-20T19:07:54.530Z,11.93
2022-08-20T19:10:43.893Z,13.30
2022-08-20T19:13:57.577Z,12.88
2022-08-20T19:16:38.112Z,11.88
2022-08-20T19:19:21.186Z,12.55
2022-08-20T19:22:11.392Z,12.00
2022-08-20T19:24:54.175Z,11.88
2022-08-20T19:27:25.513Z,11.35
2022-08-20T19:29:56.792Z,10.85
2022-08-20T19:32:30.407Z,10.80
2022-08-20T19:35:00.043Z,10.77
2022-08-20T19:37:39.783Z,10.98
2022-08-20T19:40:38.136Z,10.05
2022-08-20T19:43:14.579Z,9.80
2022-08-20T19:46:06.934Z,9.35
2022-08-20T19:49:06.567Z,9.73
2022-08-20T19:51:47.894Z,9.93
2022-08-20T19:54:43.207Z,10.02
2022-08-20T19:57:11.551Z,10.45
2022-08-20T19:59:40.173Z,9.95
2022-08-20T20:02:20.525Z,10.90
2022-08-20T20:04:58.969Z,11.32
2022-08-20T20:07:35.787Z,11.23
2022-08-20T20:10:06.331Z,11.23
2022-08-20T20:12:34.470Z,12.30
2022-08-20T20:15:02.304Z,11.15
2022-08-20T20:17:36.103Z,11.30
2022-08-20T20:23:17.449Z,12.20
2022-08-20T20:25:59.587Z,13.20
2022-08-20T20:29:00.893Z,12.85
2022-08-20T20:31:32.394Z,14.48
2022-08-20T20:34:06.984Z,13.93
2022-08-20T20:36:41.094Z,14.00
2022-08-20T20:39:25.005Z,14.45
2022-08-20T20:41:56.271Z,13.82
2022-08-20T20:44:37.057Z,12.38
2022-08-20T20:47:35.955Z,12.38
2022-08-20T20:50:12.198Z,13.15
2022-08-20T20:52:54.836Z,13.30
2022-08-20T20:55:27.046Z,12.45
2022-08-20T20:57:59.066Z,12.25
2022-08-20T21:00:35.822Z,12.50
2022-08-20T21:03:04.052Z,12.13
2022-08-20T21:05:33.740Z,12.20
2022-08-20T21:08:06.440Z,12.68
2022-08-20T21:10:36.727Z,11.90
2022-08-20T21:13:08.986Z,12.55
2022-08-20T21:15:38.225Z,12.20
2022-08-20T21:18:14.492Z,10.93
2022-08-20T21:20:42.584Z,12.68
2022-08-20T21:23:12.674Z,12.25
2022-08-20T21:25:40.927Z,11.55
2022-08-20T21:28:08.961Z,11.90
2022-08-20T21:30:36.657Z,11.75
2022-08-20T21:33:06.941Z,12.45
2022-08-20T21:35:35.147Z,11.32
2022-08-20T21:38:21.028Z,11.68
2022-08-20T21:40:48.210Z,11.07
2022-08-20T21:43:18.825Z,10.90
2022-08-20T21:45:49.524Z,11.60
2022-08-20T21:48:17.849Z,11.25
2022-08-20T21:50:47.995Z,11.15
2022-08-20T21:53:15.180Z,11.38
2022-08-20T21:55:44.293Z,11.25
2022-08-20T21:58:12.475Z,10.95
2022-08-20T22:00:55.818Z,10.80
2022-08-20T22:03:38.524Z,10.95
2022-08-20T22:06:09.697Z,10.20
2022-08-20T22:08:38.248Z,10.48
2022-08-20T22:11:10.814Z,10.73
2022-08-20T22:13:40.586Z,10.07
2022-08-20T22:16:19.254Z,10.45
2022-08-20T22:18:50.489Z,10.52
2022-08-20T22:21:33.302Z,10.60
2022-08-20T22:24:04.103Z,10.50
2022-08-20T22:26:32.586Z,10.57
2022-08-20T22:28:59.802Z,10.95
2022-08-20T22:31:31.774Z,10.23
2022-08-20T22:33:59.318Z,10.23
2022-08-20T22:36:32.725Z,10.15
2022-08-20T22:38:59.991Z,10.52
2022-08-20T22:41:29.253Z,9.60
2022-08-20T22:44:12.559Z,9.90
2022-08-20T22:46:47.089Z,10.18
2022-08-20T22:49:22.715Z,10.20
2022-08-20T22:54:25.923Z,9.13
2022-08-20T22:56:55.341Z,9.70
2022-08-20T22:59:24.742Z,9.98
2022-08-20T23:01:53.955Z,9.23
2022-08-20T23:04:40.959Z,10.30
2022-08-20T23:07:13.736Z,9.52
2022-08-20T23:09:42.181Z,9.63
2022-08-20T23:12:10.062Z,9.60
2022-08-20T23:14:37.795Z,9.88
2022-08-20T23:17:13.666Z,9.27
2022-08-20T23:19:43.077Z,10.02
2022-08-20T23:22:11.357Z,10.15
2022-08-20T23:24:41.344Z,10.15
2022-08-20T23:27:33.099Z,9.73
2022-08-20T23:30:17.593Z,9.73
2022-08-20T23:33:14.736Z,9.63
2022-08-20T23:35:45.578Z,9.75
2022-08-20T23:38:16.959Z,10.23
2022-08-20T23:40:47.048Z,10.45
2022-08-20T23:43:23.061Z,10.60
2022-08-20T23:46:02.804Z,10.35
2022-08-20T23:48:32.205Z,10.20
2022-08-20T23:51:02.358Z,9.82
2022-08-20T23:53:48.020Z,10.10
2022-08-20T23:56:26.815Z,10.70
2022-08-20T23:58:55.985Z,10.48
